Time;durP1;ratioP1;P1;durP2;ratioP2;P2;SDS_P1;SDS_P2;PMS_P1;PMS_P2;Temp;Humidity;BMP_temperature;BMP_pressure;BME280_temperature;BME280_humidity;BME280_pressure;Samples;Min_cycle;Max_cycle;Signal;HPM_P1;HPM_P2
2022/06/20 00:01:25;;;;;;;5.60;2.30;;;13.20;99.90;;;;;;5099702;28;20427;-78
2022/06/20 00:03:52;;;;;;;3.58;2.35;;;13.20;99.90;;;;;;5097975;28;20093;-81
2022/06/20 00:06:21;;;;;;;6.97;2.97;;;13.20;99.90;;;;;;5097576;28;20024;-81
2022/06/20 00:08:49;;;;;;;10.48;3.30;;;13.10;99.90;;;;;;5096866;28;20084;-80
2022/06/20 00:11:42;;;;;;;7.47;2.40;;;13.10;99.90;;;;;;5098029;28;20031;-79
2022/06/20 00:14:15;;;;;;;4.88;2.65;;;13.10;99.90;;;;;;5093196;28;20039;-78
2022/06/20 00:16:41;;;;;;;7.50;2.35;;;13.00;99.90;;;;;;5097233;28;20021;-79
2022/06/20 00:19:09;;;;;;;8.15;2.83;;;12.90;99.90;;;;;;5097013;28;20499;-79
2022/06/20 00:21:35;;;;;;;11.68;3.13;;;12.80;99.90;;;;;;5097177;28;20028;-80
2022/06/20 00:24:01;;;;;;;11.77;3.80;;;12.80;99.90;;;;;;5096826;28;20057;-79
2022/06/20 00:26:29;;;;;;;8.15;2.80;;;12.90;99.90;;;;;;5096657;28;20020;-79
2022/06/20 00:28:56;;;;;;;9.20;3.40;;;12.80;99.90;;;;;;5096461;28;20031;-80
2022/06/20 00:31:22;;;;;;;7.68;2.67;;;12.80;99.90;;;;;;5096780;28;20042;-79
2022/06/20 00:33:48;;;;;;;10.38;3.53;;;12.80;99.90;;;;;;5096731;28;20114;-80
2022/06/20 00:36:14;;;;;;;6.75;2.75;;;12.80;99.90;;;;;;5095934;28;20446;-79
2022/06/20 00:38:42;;;;;;;7.95;3.20;;;12.80;99.90;;;;;;5097028;28;20028;-78
2022/06/20 00:41:15;;;;;;;5.55;3.17;;;12.80;99.90;;;;;;5097040;28;20024;-80
2022/06/20 00:43:45;;;;;;;8.65;3.25;;;12.80;99.90;;;;;;5095097;28;20495;-79
2022/06/20 00:46:17;;;;;;;9.52;3.50;;;12.80;99.90;;;;;;5095733;28;20070;-79
2022/06/20 00:48:49;;;;;;;6.30;3.10;;;12.80;99.90;;;;;;5095791;28;20487;-81
2022/06/20 00:51:26;;;;;;;5.80;3.10;;;12.80;99.90;;;;;;5096760;28;20384;-78
2022/06/20 00:54:03;;;;;;;8.00;3.10;;;12.80;99.90;;;;;;5096298;28;20024;-79
2022/06/20 00:56:36;;;;;;;13.57;2.95;;;12.70;99.90;;;;;;5096042;28;20418;-79
2022/06/20 00:59:08;;;;;;;3.70;2.50;;;12.70;99.90;;;;;;5095808;28;20024;-79
2022/06/20 01:01:38;;;;;;;8.25;2.75;;;12.60;99.90;;;;;;5096915;28;20044;-78
2022/06/20 01:04:26;;;;;;;6.45;2.70;;;12.50;99.90;;;;;;5095275;28;20035;-79
2022/06/20 01:06:55;;;;;;;4.97;3.05;;;12.50;99.90;;;;;;5095902;28;20081;-79
2022/06/20 01:09:25;;;;;;;5.15;2.75;;;12.50;99.90;;;;;;5096062;28;20050;-80
2022/06/20 01:11:57;;;;;;;6.32;2.67;;;12.40;99.90;;;;;;5095237;28;20020;-78
2022/06/20 01:14:27;;;;;;;5.28;2.90;;;12.50;99.90;;;;;;5096020;28;20372;-79
2022/06/20 01:16:54;;;;;;;;;;;12.50;99.90;;;;;;5096218;28;20016;-79
2022/06/20 01:19:44;;;;;;;3.20;2.45;;;12.50;99.90;;;;;;5094941;28;19990;-80
2022/06/20 01:22:34;;;;;;;7.75;3.03;;;12.60;99.90;;;;;;5095955;28;20027;-78
2022/06/20 01:25:20;;;;;;;5.13;3.03;;;12.60;99.90;;;;;;5095348;28;20142;-79
2022/06/20 01:27:48;;;;;;;6.70;3.22;;;12.70;99.90;;;;;;5099514;28;20023;-79
2022/06/20 01:30:14;;;;;;;4.45;2.92;;;12.70;99.90;;;;;;5099952;28;20428;-81
2022/06/20 01:32:42;;;;;;;6.65;3.83;;;12.70;99.90;;;;;;5095022;28;20028;-79
2022/06/20 01:35:11;;;;;;;9.75;4.28;;;12.80;99.90;;;;;;5095938;28;20073;-78
2022/06/20 01:37:40;;;;;;;11.52;4.32;;;12.90;99.90;;;;;;5099278;28;20024;-79
2022/06/20 01:40:10;;;;;;;9.27;4.50;;;12.90;99.90;;;;;;5099863;28;20100;-79
2022/06/20 01:42:36;;;;;;;7.57;3.87;;;12.90;99.90;;;;;;5104773;28;20028;-79
2022/06/20 01:48:06;;;;;;;9.07;4.00;;;13.00;99.90;;;;;;5100706;28;20541;-79
2022/06/20 01:50:33;;;;;;;12.88;3.97;;;12.80;99.90;;;;;;5096188;28;20115;-78
2022/06/20 01:53:01;;;;;;;11.05;4.28;;;12.90;99.90;;;;;;5099119;28;20085;-79
2022/06/20 01:55:28;;;;;;;8.95;4.38;;;12.90;99.90;;;;;;5094545;28;20056;-78
2022/06/20 01:57:58;;;;;;;10.18;4.55;;;13.00;99.90;;;;;;5096686;28;20066;-79
2022/06/20 02:00:24;;;;;;;11.52;4.03;;;13.00;99.90;;;;;;5101821;28;20090;-80
2022/06/20 02:02:54;;;;;;;14.48;4.18;;;12.90;99.90;;;;;;5106973;28;20499;-80
2022/06/20 02:05:25;;;;;;;13.52;4.53;;;12.90;99.90;;;;;;5095712;28;20048;-79
2022/06/20 02:07:52;;;;;;;10.48;3.78;;;13.00;99.90;;;;;;5094911;28;20074;-79
2022/06/20 02:10:27;;;;;;;15.32;4.18;;;13.00;99.90;;;;;;5096136;28;20028;-77
2022/06/20 02:12:56;;;;;;;10.57;5.13;;;13.00;99.90;;;;;;5100660;28;20031;-78
2022/06/20 02:15:22;;;;;;;13.63;4.85;;;13.00;99.90;;;;;;5102965;28;20448;-78
2022/06/20 02:17:50;;;;;;;14.55;5.60;;;13.00;99.90;;;;;;5095742;28;20031;-77
2022/06/20 02:20:25;;;;;;;16.13;4.10;;;12.90;99.90;;;;;;5094563;28;20551;-78
2022/06/20 02:22:53;;;;;;;9.68;3.95;;;12.90;99.90;;;;;;5098073;28;20031;-79
2022/06/20 02:25:23;;;;;;;12.93;4.53;;;12.80;99.90;;;;;;5094625;28;20036;-78
2022/06/20 02:27:53;;;;;;;14.65;4.38;;;12.80;99.90;;;;;;5094712;28;20062;-79
2022/06/20 02:30:19;;;;;;;13.23;3.80;;;12.80;99.90;;;;;;5094150;28;20039;-79
2022/06/20 02:32:49;;;;;;;11.20;4.47;;;12.80;99.90;;;;;;5094801;28;20023;-80
2022/06/20 02:35:18;;;;;;;12.05;4.32;;;12.90;99.90;;;;;;5095001;28;20028;-79
2022/06/20 02:37:45;;;;;;;14.30;3.80;;;12.80;99.90;;;;;;5094330;28;20468;-80
2022/06/20 02:40:14;;;;;;;10.55;3.83;;;12.80;99.90;;;;;;5094042;28;20036;-80
2022/06/20 02:42:48;;;;;;;7.97;4.15;;;12.80;99.90;;;;;;5093589;28;20111;-79
2022/06/20 02:45:15;;;;;;;9.63;3.75;;;12.80;99.90;;;;;;5093806;28;20092;-80
2022/06/20 02:47:43;;;;;;;9.18;3.60;;;12.80;99.90;;;;;;5093847;28;20097;-79
2022/06/20 02:50:12;;;;;;;10.73;3.70;;;12.70;99.90;;;;;;5093448;28;20036;-80
2022/06/20 02:52:47;;;;;;;16.73;3.90;;;12.80;99.90;;;;;;5093896;28;20027;-80
2022/06/20 02:55:16;;;;;;;6.32;2.78;;;12.70;99.90;;;;;;5093132;28;20472;-79
2022/06/20 02:57:45;;;;;;;7.75;3.33;;;12.70;99.90;;;;;;5092378;28;20028;-80
2022/06/20 03:00:25;;;;;;;12.77;3.42;;;12.70;99.90;;;;;;5094469;28;20052;-78
2022/06/20 03:02:59;;;;;;;13.27;3.42;;;12.60;99.90;;;;;;5093776;28;20112;-78
2022/06/20 03:05:24;;;;;;;12.25;3.63;;;12.70;99.90;;;;;;5093914;28;20365;-79
2022/06/20 03:07:51;;;;;;;15.27;3.42;;;12.70;99.90;;;;;;5093808;28;20031;-81
2022/06/20 03:10:28;;;;;;;7.82;3.50;;;12.70;99.90;;;;;;5093347;28;20024;-79
2022/06/20 03:12:56;;;;;;;15.85;3.80;;;12.60;99.90;;;;;;5097257;28;20049;-78
2022/06/20 03:15:22;;;;;;;6.82;3.97;;;12.50;99.90;;;;;;5097627;28;20020;-79
2022/06/20 03:17:49;;;;;;;11.52;3.42;;;12.40;99.90;;;;;;5096780;28;20109;-80
2022/06/20 03:20:17;;;;;;;9.57;3.08;;;12.40;99.90;;;;;;5098002;28;20039;-79
2022/06/20 03:22:50;;;;;;;9.48;3.35;;;12.40;99.90;;;;;;5097638;28;20055;-79
2022/06/20 03:25:18;;;;;;;8.40;3.40;;;12.40;99.90;;;;;;5096839;28;20379;-79
2022/06/20 03:27:44;;;;;;;7.43;3.25;;;12.40;99.90;;;;;;5097042;28;20153;-81
2022/06/20 03:30:27;;;;;;;14.60;3.78;;;12.40;99.90;;;;;;5097085;28;20115;-79
2022/06/20 03:32:53;;;;;;;10.18;3.40;;;12.40;99.90;;;;;;5096985;28;20052;-79
2022/06/20 03:35:19;;;;;;;10.90;2.78;;;12.50;99.90;;;;;;5110702;28;20024;-79
2022/06/20 03:37:45;;;;;;;13.20;3.05;;;12.40;99.90;;;;;;5104478;28;20036;-80
2022/06/20 03:40:11;;;;;;;7.40;2.60;;;12.40;99.90;;;;;;5097632;28;20027;-80
2022/06/20 03:42:40;;;;;;;7.22;2.63;;;12.40;99.90;;;;;;5098020;28;20384;-80
2022/06/20 03:45:08;;;;;;;10.35;2.38;;;12.40;99.90;;;;;;5104030;28;20111;-80
2022/06/20 03:47:38;;;;;;;7.97;3.00;;;12.40;99.90;;;;;;5105995;28;20024;-79
2022/06/20 03:50:16;;;;;;;17.23;3.00;;;12.40;99.90;;;;;;5108235;28;20035;-79
2022/06/20 03:53:15;;;;;;;6.80;2.40;;;12.30;99.90;;;;;;5105229;28;20030;-81
2022/06/20 03:55:52;;;;;;;6.50;2.70;;;12.30;99.90;;;;;;5097730;28;20042;-81
2022/06/20 03:58:24;;;;;;;11.07;3.40;;;12.30;99.90;;;;;;5097412;28;20055;-80
2022/06/20 04:01:10;;;;;;;13.13;3.92;;;12.40;99.90;;;;;;5096192;28;20111;-81
2022/06/20 04:03:53;;;;;;;8.13;2.25;;;12.50;99.90;;;;;;5096932;28;20032;-79
2022/06/20 04:06:48;;;;;;;5.72;2.35;;;12.60;99.90;;;;;;5096884;28;20028;-79
2022/06/20 04:12:17;;;;;;;9.07;2.60;;;12.60;99.90;;;;;;5096751;28;20073;-79
2022/06/20 04:15:19;;;;;;;5.70;2.20;;;12.70;99.90;;;;;;5095952;28;20019;-79
2022/06/20 04:20:58;;;;;;;9.30;3.42;;;12.70;99.90;;;;;;5096635;28;20035;-79
2022/06/20 04:23:36;;;;;;;12.60;3.05;;;12.80;99.90;;;;;;5095548;28;20031;-80
2022/06/20 04:26:18;;;;;;;9.07;2.78;;;12.80;99.90;;;;;;5096422;28;20036;-79
2022/06/20 04:28:48;;;;;;;7.82;2.67;;;12.80;99.90;;;;;;5095820;28;20031;-79
2022/06/20 04:31:25;;;;;;;11.50;3.83;;;12.80;99.90;;;;;;5096337;28;20145;-79
2022/06/20 04:34:12;;;;;;;13.93;3.13;;;12.90;99.90;;;;;;5096705;28;20032;-79
2022/06/20 04:36:44;;;;;;;6.93;2.90;;;12.90;99.90;;;;;;5100355;28;20028;-79
2022/06/20 04:39:21;;;;;;;11.48;2.95;;;12.90;99.90;;;;;;5102951;28;20039;-79
2022/06/20 04:42:06;;;;;;;10.93;2.30;;;12.80;99.90;;;;;;5096593;28;20473;-79
2022/06/20 04:44:41;;;;;;;7.00;2.58;;;12.80;99.90;;;;;;5096531;28;20044;-78
2022/06/20 04:47:30;;;;;;;5.35;3.00;;;12.90;99.90;;;;;;5096963;28;20082;-78
2022/06/20 04:49:56;;;;;;;11.95;3.05;;;12.90;99.90;;;;;;5101686;28;20028;-79
2022/06/20 04:52:26;;;;;;;6.25;2.50;;;13.10;99.90;;;;;;5099854;28;20024;-79
2022/06/20 04:54:53;;;;;;;10.90;2.95;;;13.10;99.90;;;;;;5096413;28;20020;-79
2022/06/20 04:57:19;;;;;;;10.65;2.28;;;13.10;99.90;;;;;;5095494;28;20051;-80
2022/06/20 04:59:44;;;;;;;6.85;3.03;;;13.20;99.90;;;;;;5095601;28;20028;-79
2022/06/20 05:02:17;;;;;;;6.60;2.63;;;13.20;99.90;;;;;;5096424;28;20399;-79
2022/06/20 05:04:47;;;;;;;10.15;2.72;;;13.30;99.90;;;;;;5094380;28;20040;-79
2022/06/20 05:07:22;;;;;;;9.82;2.25;;;13.30;99.90;;;;;;5095434;28;20099;-79
2022/06/20 05:10:35;;;;;;;8.52;2.78;;;13.30;99.90;;;;;;5097014;28;20440;-79
2022/06/20 05:13:14;;;;;;;7.75;2.75;;;13.40;99.90;;;;;;5078341;28;20097;-80
2022/06/20 05:15:43;;;;;;;8.07;2.67;;;13.50;99.90;;;;;;5096244;28;20016;-78
2022/06/20 05:18:27;;;;;;;7.55;2.60;;;13.50;99.90;;;;;;5077799;28;20434;-78
2022/06/20 05:21:15;;;;;;;10.18;2.70;;;13.50;99.90;;;;;;5095736;28;20027;-77
2022/06/20 05:23:44;;;;;;;6.57;2.63;;;13.60;99.90;;;;;;5095468;28;20052;-78
2022/06/20 05:26:15;;;;;;;7.68;2.58;;;13.70;99.90;;;;;;5096671;28;20036;-78
2022/06/20 05:28:42;;;;;;;9.82;3.10;;;13.80;99.90;;;;;;5098834;28;20047;-79
2022/06/20 05:31:09;;;;;;;5.88;2.75;;;13.80;99.90;;;;;;5095764;28;20043;-79
2022/06/20 05:33:45;;;;;;;11.27;2.78;;;13.90;99.90;;;;;;5095600;28;20032;-78
2022/06/20 05:36:11;;;;;;;14.90;3.58;;;13.80;99.90;;;;;;5096680;28;20095;-78
2022/06/20 05:38:59;;;;;;;11.55;3.38;;;13.80;99.90;;;;;;5098598;28;20067;-79
2022/06/20 05:41:24;;;;;;;15.70;2.50;;;13.70;99.90;;;;;;5100912;28;20036;-79
2022/06/20 05:43:53;;;;;;;8.18;2.88;;;13.70;99.90;;;;;;5104570;28;20028;-79
2022/06/20 05:46:23;;;;;;;9.35;2.95;;;13.60;99.90;;;;;;5097797;28;20099;-79
2022/06/20 05:48:53;;;;;;;11.85;3.67;;;13.70;99.90;;;;;;5097576;28;20510;-80
2022/06/20 05:51:23;;;;;;;10.98;4.13;;;13.70;99.90;;;;;;5099522;28;20032;-78
2022/06/20 05:53:57;;;;;;;10.05;3.15;;;13.80;99.90;;;;;;5105619;28;20047;-79
2022/06/20 05:56:34;;;;;;;9.07;2.83;;;13.90;99.90;;;;;;5101348;28;20028;-78
2022/06/20 05:59:01;;;;;;;7.97;3.33;;;14.00;99.90;;;;;;5107334;28;20110;-79
2022/06/20 06:01:40;;;;;;;9.52;3.15;;;14.00;99.90;;;;;;5098964;28;20068;-78
2022/06/20 06:04:17;;;;;;;12.60;2.95;;;14.10;99.90;;;;;;5096476;28;20039;-79
2022/06/20 06:06:55;;;;;;;5.00;2.58;;;14.20;99.90;;;;;;5096396;28;20027;-79
2022/06/20 06:09:51;;;;;;;17.58;3.60;;;14.30;99.90;;;;;;5097420;28;20028;-79
2022/06/20 06:12:25;;;;;;;8.15;2.92;;;14.40;99.90;;;;;;5098014;28;20028;-77
2022/06/20 06:14:56;;;;;;;11.80;3.67;;;14.50;99.90;;;;;;5096615;28;20024;-77
2022/06/20 06:17:40;;;;;;;9.18;3.00;;;14.50;99.90;;;;;;5096356;28;20028;-77
2022/06/20 06:20:14;;;;;;;10.48;3.33;;;14.60;99.90;;;;;;5098676;28;20031;-78
2022/06/20 06:22:45;;;;;;;9.13;2.58;;;14.50;99.90;;;;;;5099575;28;20088;-79
2022/06/20 06:25:30;;;;;;;11.63;3.33;;;14.60;99.90;;;;;;5096728;28;20081;-80
2022/06/20 06:28:00;;;;;;;11.43;3.42;;;14.60;99.90;;;;;;5098639;28;20028;-78
2022/06/20 06:30:31;;;;;;;9.17;4.00;;;14.60;99.90;;;;;;5096297;28;20158;-78
2022/06/20 06:32:56;;;;;;;;;;;14.50;99.90;;;;;;5098287;28;20052;-77
2022/06/20 06:35:31;;;;;;;8.23;3.15;;;14.60;99.90;;;;;;5098168;28;19904;-77
2022/06/20 06:37:59;;;;;;;6.75;3.15;;;14.50;99.90;;;;;;5100083;28;20484;-79
2022/06/20 06:40:33;;;;;;;15.00;3.47;;;14.60;99.90;;;;;;5098219;28;20024;-78
2022/06/20 06:43:02;;;;;;;9.52;3.58;;;14.70;99.90;;;;;;5100229;28;20237;-77
2022/06/20 06:45:32;;;;;;;8.80;3.22;;;14.80;99.90;;;;;;5098413;28;20063;-78
2022/06/20 06:48:09;;;;;;;6.28;2.88;;;15.00;99.90;;;;;;5098834;28;20578;-78
2022/06/20 06:50:50;;;;;;;12.50;3.53;;;15.10;99.90;;;;;;5096976;28;20031;-79
2022/06/20 06:53:18;;;;;;;;;;;15.20;99.90;;;;;;5096591;28;20028;-78
2022/06/20 06:55:49;;;;;;;13.88;3.22;;;15.30;99.90;;;;;;5097864;28;19967;-77
2022/06/20 06:58:24;;;;;;;;;;;15.30;99.90;;;;;;5097023;28;20042;-78
2022/06/20 07:00:55;;;;;;;14.73;3.00;;;15.30;99.90;;;;;;5097202;28;19919;-78
2022/06/20 07:03:49;;;;;;;7.32;3.25;;;15.40;99.90;;;;;;5095857;28;20056;-78
2022/06/20 07:06:22;;;;;;;6.55;3.40;;;15.50;99.90;;;;;;5066398;28;20024;-78
2022/06/20 07:09:26;;;;;;;12.60;3.30;;;15.60;99.90;;;;;;5096881;28;20051;-77
2022/06/20 07:11:57;;;;;;;8.10;3.15;;;15.80;99.90;;;;;;5053013;28;20138;-78
2022/06/20 07:14:23;;;;;;;9.05;3.15;;;15.90;99.90;;;;;;5110953;28;20023;-78
2022/06/20 07:17:11;;;;;;;16.05;3.63;;;15.90;99.90;;;;;;5100955;28;20017;-78
2022/06/20 07:19:50;;;;;;;11.45;3.13;;;15.70;99.90;;;;;;5097991;28;20024;-78
2022/06/20 07:22:17;;;;;;;8.70;2.67;;;15.50;99.90;;;;;;5099577;28;20047;-79
2022/06/20 07:24:45;;;;;;;6.72;2.80;;;15.40;99.90;;;;;;5105313;28;20191;-78
2022/06/20 07:27:18;;;;;;;7.38;2.08;;;15.40;99.90;;;;;;5104221;28;20039;-78
2022/06/20 07:29:59;;;;;;;7.45;2.50;;;15.50;99.90;;;;;;5098015;28;20038;-77
2022/06/20 07:32:35;;;;;;;;;;;15.50;99.90;;;;;;5094035;28;20052;-77
2022/06/20 07:35:08;;;;;;;5.45;2.45;;;15.60;99.90;;;;;;5094559;28;19908;-77
2022/06/20 07:37:46;;;;;;;5.43;2.63;;;15.80;99.90;;;;;;5094528;28;20081;-77
2022/06/20 07:40:22;;;;;;;8.23;2.95;;;16.10;99.90;;;;;;5093206;28;20189;-77
2022/06/20 07:43:12;;;;;;;6.15;2.15;;;16.30;99.90;;;;;;5093487;28;20055;-77
2022/06/20 07:45:47;;;;;;;8.05;2.75;;;16.40;99.90;;;;;;5093365;28;20054;-77
2022/06/20 07:48:25;;;;;;;8.43;2.50;;;16.60;99.90;;;;;;5095412;28;20056;-79
2022/06/20 07:51:11;;;;;;;7.03;2.75;;;16.50;99.90;;;;;;5101359;28;20085;-78
2022/06/20 07:53:57;;;;;;;7.35;2.50;;;16.30;99.90;;;;;;5091383;28;20067;-78
2022/06/20 07:56:26;;;;;;;10.70;3.08;;;16.10;99.90;;;;;;5092479;28;20039;-77
2022/06/20 07:58:56;;;;;;;9.23;2.58;;;16.00;99.90;;;;;;5098513;28;20020;-78
2022/06/20 08:01:28;;;;;;;5.60;2.10;;;16.00;99.90;;;;;;5098520;28;20515;-78
2022/06/20 08:03:56;;;;;;;7.20;2.88;;;16.10;99.90;;;;;;5097014;28;20074;-77
2022/06/20 08:06:33;;;;;;;6.22;2.22;;;16.10;99.90;;;;;;5098567;28;20110;-77
2022/06/20 08:09:24;;;;;;;8.40;2.70;;;16.20;99.90;;;;;;5096942;28;20503;-77
2022/06/20 08:11:59;;;;;;;6.88;2.15;;;16.30;99.90;;;;;;5094373;28;20040;-78
2022/06/20 08:14:42;;;;;;;6.18;2.60;;;16.30;99.90;;;;;;5096709;28;20020;-77
2022/06/20 08:17:10;;;;;;;7.43;2.38;;;16.30;99.90;;;;;;5097397;28;20111;-77
2022/06/20 08:19:38;;;;;;;6.43;2.22;;;16.20;99.90;;;;;;5097572;28;20060;-77
2022/06/20 08:22:33;;;;;;;7.93;2.47;;;16.30;99.90;;;;;;5097553;28;20031;-77
2022/06/20 08:25:18;;;;;;;5.82;2.40;;;16.40;99.90;;;;;;5062551;28;20403;-76
2022/06/20 08:27:49;;;;;;;8.48;2.30;;;16.40;99.90;;;;;;5096003;28;20032;-78
2022/06/20 08:30:58;;;;;;;13.70;3.25;;;16.60;99.90;;;;;;5096640;28;20468;-78
2022/06/20 08:33:36;;;;;;;5.28;2.10;;;16.80;99.90;;;;;;5014632;28;20498;-77
2022/06/20 08:36:11;;;;;;;5.22;2.33;;;17.10;99.90;;;;;;5085758;28;20538;-76
2022/06/20 08:38:56;;;;;;;7.25;1.90;;;17.10;99.90;;;;;;5096175;28;20396;-77
2022/06/20 08:42:00;;;;;;;11.18;3.50;;;17.10;99.90;;;;;;5095646;28;20134;-77
2022/06/20 08:44:43;;;;;;;7.43;2.33;;;16.90;99.90;;;;;;5096133;28;20036;-78
2022/06/20 08:47:43;;;;;;;5.57;2.50;;;16.90;99.90;;;;;;5095584;28;20046;-78
2022/06/20 08:50:17;;;;;;;7.70;1.80;;;17.00;99.90;;;;;;5095466;28;20024;-78
2022/06/20 08:53:04;;;;;;;7.45;2.28;;;17.10;99.90;;;;;;5095562;28;20020;-77
2022/06/20 08:56:01;;;;;;;7.28;2.53;;;17.20;99.90;;;;;;5095389;28;20487;-77
2022/06/20 08:58:54;;;;;;;8.70;2.28;;;17.20;99.90;;;;;;5095630;28;20028;-76
2022/06/20 09:01:47;;;;;;;5.13;2.17;;;17.40;99.30;;;;;;5095789;28;20059;-77
2022/06/20 09:04:46;;;;;;;7.18;2.03;;;17.10;99.90;;;;;;5094824;28;20036;-77
2022/06/20 09:07:32;;;;;;;8.75;2.63;;;17.20;98.90;;;;;;5068956;28;20058;-78
2022/06/20 09:10:21;;;;;;;4.30;2.05;;;17.20;99.80;;;;;;5094810;28;20051;-78
2022/06/20 09:13:14;;;;;;;4.97;2.50;;;17.30;99.90;;;;;;5097017;28;20020;-78
2022/06/20 09:16:12;;;;;;;2.15;1.52;;;17.30;97.00;;;;;;5095856;28;20033;-78
2022/06/20 09:19:14;;;;;;;5.10;1.73;;;17.50;99.60;;;;;;5095936;28;20024;-78
2022/06/20 09:21:56;;;;;;;2.83;1.30;;;17.70;98.60;;;;;;5079878;28;20059;-78
2022/06/20 09:24:44;;;;;;;3.78;1.42;;;17.60;97.80;;;;;;5095445;28;20045;-77
2022/06/20 09:27:18;;;;;;;4.38;1.90;;;17.70;96.90;;;;;;5096327;28;20024;-78
2022/06/20 09:30:02;;;;;;;4.95;1.50;;;17.60;96.90;;;;;;5096767;28;20024;-78
2022/06/20 09:33:30;;;;;;;3.60;1.60;;;17.70;96.10;;;;;;5094772;28;20027;-78
2022/06/20 09:36:21;;;;;;;3.47;1.40;;;17.70;96.00;;;;;;5050693;28;20060;-77
2022/06/20 09:39:02;;;;;;;4.85;1.55;;;17.80;96.30;;;;;;5095848;28;20020;-77
2022/06/20 09:41:43;;;;;;;4.90;1.70;;;17.80;95.80;;;;;;5096404;28;20564;-78
2022/06/20 09:44:11;;;;;;;5.32;2.42;;;17.90;96.30;;;;;;5096294;28;20526;-77
2022/06/20 09:46:57;;;;;;;5.05;1.73;;;18.10;97.90;;;;;;5097463;28;20472;-77
2022/06/20 09:49:55;;;;;;;3.72;1.50;;;18.20;97.20;;;;;;5110997;28;20028;-78
2022/06/20 09:52:51;;;;;;;5.18;1.95;;;18.00;97.30;;;;;;5106646;28;20062;-77
2022/06/20 09:55:29;;;;;;;3.17;1.73;;;17.80;98.20;;;;;;5097324;28;20028;-78
2022/06/20 09:58:18;;;;;;;7.80;2.67;;;17.90;98.30;;;;;;5100409;28;20557;-78
2022/06/20 10:01:02;;;;;;;10.48;2.40;;;18.00;97.80;;;;;;5096293;28;20044;-78
2022/06/20 10:03:50;;;;;;;6.78;2.47;;;18.10;97.30;;;;;;5099820;28;20380;-77
2022/06/20 10:06:36;;;;;;;3.42;1.70;;;18.00;96.40;;;;;;5103340;28;20039;-78
2022/06/20 10:09:34;;;;;;;3.30;1.70;;;17.90;96.60;;;;;;5096112;28;20044;-76
2022/06/20 10:12:37;;;;;;;7.38;2.63;;;17.90;97.60;;;;;;5066272;28;20043;-78
2022/06/20 10:15:41;;;;;;;5.90;1.70;;;18.00;97.80;;;;;;5096030;28;20020;-78
2022/06/20 10:18:18;;;;;;;11.63;1.90;;;17.90;97.20;;;;;;5080853;28;20114;-78
2022/06/20 10:21:06;;;;;;;4.00;1.85;;;18.10;97.10;;;;;;5094578;28;20093;-79
2022/06/20 10:23:47;;;;;;;6.20;1.90;;;17.90;95.70;;;;;;5095193;28;20103;-77
2022/06/20 10:26:18;;;;;;;8.80;3.35;;;17.90;96.50;;;;;;5095089;28;20032;-78
2022/06/20 10:29:13;;;;;;;8.10;2.33;;;17.90;97.60;;;;;;5093889;28;20095;-78
2022/06/20 10:32:10;;;;;;;10.00;2.50;;;17.90;98.30;;;;;;5094512;28;20055;-78
2022/06/20 10:34:45;;;;;;;3.50;1.80;;;17.90;97.20;;;;;;5077552;28;20395;-78
2022/06/20 10:37:21;;;;;;;5.35;2.25;;;17.90;98.40;;;;;;5094471;28;20028;-77
2022/06/20 10:39:55;;;;;;;11.18;3.22;;;18.10;98.00;;;;;;5094645;28;20028;-77
2022/06/20 10:42:58;;;;;;;8.35;2.35;;;18.20;97.20;;;;;;5093598;28;20050;-77
2022/06/20 10:45:42;;;;;;;13.80;2.13;;;18.20;98.30;;;;;;5052249;28;20044;-76
2022/06/20 10:48:14;;;;;;;7.25;3.10;;;17.90;97.70;;;;;;5094061;28;20035;-77
2022/06/20 10:51:11;;;;;;;8.48;2.50;;;17.90;97.60;;;;;;5094652;28;20028;-77
2022/06/20 10:53:48;;;;;;;6.63;2.20;;;18.20;97.40;;;;;;5095113;28;20028;-77
2022/06/20 10:56:42;;;;;;;10.15;2.30;;;18.60;97.90;;;;;;5093468;28;20472;-78
2022/06/20 10:59:38;;;;;;;10.77;2.58;;;18.70;96.80;;;;;;5093952;28;20067;-77
2022/06/20 11:02:33;;;;;;;7.32;2.10;;;19.00;96.60;;;;;;5093457;28;20071;-76
2022/06/20 11:05:26;;;;;;;4.93;2.10;;;19.00;96.20;;;;;;5095916;28;20044;-78
2022/06/20 11:08:21;;;;;;;11.60;3.10;;;19.00;97.50;;;;;;5094161;28;20077;-78
2022/06/20 11:10:59;;;;;;;6.25;2.20;;;18.70;97.10;;;;;;5092794;28;20043;-77
2022/06/20 11:13:44;;;;;;;14.32;3.10;;;18.40;97.30;;;;;;5095548;28;20024;-77
2022/06/20 11:16:15;;;;;;;6.78;2.33;;;18.30;98.10;;;;;;5092560;28;20036;-79
2022/06/20 11:19:16;;;;;;;9.10;2.95;;;18.20;97.80;;;;;;5093680;28;20028;-77
2022/06/20 11:22:05;;;;;;;;;;;18.30;98.00;;;;;;5094204;28;20028;-77
2022/06/20 11:24:53;;;;;;;4.75;1.95;;;18.50;97.20;;;;;;5092481;28;20261;-76
2022/06/20 11:27:34;;;;;;;6.13;2.17;;;18.70;96.10;;;;;;5092953;28;20028;-78
2022/06/20 11:30:31;;;;;;;10.20;3.03;;;18.60;96.30;;;;;;5093020;28;20085;-78
2022/06/20 11:34:00;;;;;;;8.02;2.20;;;18.60;96.90;;;;;;5095849;28;20029;-78
2022/06/20 11:36:13;;;;;;;11.45;2.30;;;18.50;97.60;;;;;;5097493;28;20028;-78
2022/06/20 11:38:44;;;;;;;9.05;2.00;;;18.30;96.40;;;;;;5096564;28;20024;-77
2022/06/20 11:41:15;;;;;;;3.65;1.65;;;18.40;97.20;;;;;;5096971;28;20035;-77
2022/06/20 11:44:06;;;;;;;5.85;2.30;;;18.70;95.90;;;;;;5097261;28;20039;-77
2022/06/20 11:47:06;;;;;;;6.68;1.95;;;19.00;95.90;;;;;;5092794;28;20538;-77
2022/06/20 11:49:38;;;;;;;5.93;2.17;;;19.10;95.20;;;;;;5097524;28;20024;-78
2022/06/20 11:52:26;;;;;;;3.97;2.00;;;19.10;95.40;;;;;;5096401;28;20025;-78
2022/06/20 11:55:19;;;;;;;8.25;2.50;;;19.10;95.80;;;;;;5097053;28;20032;-77
2022/06/20 11:58:06;;;;;;;6.25;2.45;;;19.00;95.90;;;;;;5097650;28;20032;-77
2022/06/20 12:00:42;;;;;;;6.97;2.22;;;19.20;96.40;;;;;;5096870;28;20050;-76
2022/06/20 12:03:22;;;;;;;6.57;2.08;;;19.40;96.10;;;;;;5106402;28;20043;-78
2022/06/20 12:05:58;;;;;;;7.38;2.05;;;19.30;95.60;;;;;;5097135;28;20028;-77
2022/06/20 12:08:46;;;;;;;13.93;2.10;;;19.20;95.60;;;;;;5096974;28;20027;-78
2022/06/20 12:11:29;;;;;;;6.55;2.53;;;19.40;96.00;;;;;;5096261;28;20024;-77
2022/06/20 12:14:21;;;;;;;8.18;2.28;;;19.90;95.70;;;;;;5101817;28;20058;-77
2022/06/20 12:17:24;;;;;;;8.93;2.20;;;20.10;94.50;;;;;;5096841;28;20479;-77
2022/06/20 12:23:25;;;;;;;19.20;2.72;;;19.50;95.30;;;;;;5097935;28;20057;-77
2022/06/20 12:25:59;;;;;;;6.82;2.20;;;19.30;95.20;;;;;;5101922;28;20032;-78
2022/06/20 12:28:34;;;;;;;10.43;2.40;;;19.00;95.60;;;;;;5104769;28;20020;-79
2022/06/20 12:31:35;;;;;;;8.77;1.95;;;19.00;95.30;;;;;;5098331;28;20103;-79
2022/06/20 12:34:27;;;;;;;11.73;2.63;;;18.90;96.30;;;;;;5092555;28;20105;-77
2022/06/20 12:37:08;;;;;;;7.70;2.45;;;19.20;96.60;;;;;;5096662;28;20394;-77
2022/06/20 12:40:18;;;;;;;11.27;2.70;;;19.20;96.30;;;;;;5101199;28;20035;-76
2022/06/20 12:42:50;;;;;;;8.67;3.13;;;19.10;96.80;;;;;;5081504;28;20580;-77
2022/06/20 12:45:28;;;;;;;12.32;2.38;;;19.10;96.50;;;;;;5096192;28;20071;-79
2022/06/20 12:48:41;;;;;;;6.47;2.60;;;19.00;96.30;;;;;;5095113;28;20020;-77
2022/06/20 12:51:28;;;;;;;6.40;2.22;;;18.90;96.70;;;;;;5077871;28;20448;-78
2022/06/20 12:54:15;;;;;;;8.18;2.63;;;19.00;96.70;;;;;;5096410;28;20024;-78
2022/06/20 12:57:08;;;;;;;9.55;2.72;;;19.30;98.00;;;;;;5097457;28;20376;-77
2022/06/20 12:59:49;;;;;;;11.23;3.30;;;19.30;96.00;;;;;;5095887;28;20032;-77
2022/06/20 13:02:33;;;;;;;21.25;2.97;;;19.60;97.00;;;;;;5094738;28;20040;-78
2022/06/20 13:05:29;;;;;;;9.93;2.80;;;19.70;95.80;;;;;;5096850;28;20036;-79
2022/06/20 13:08:20;;;;;;;11.85;3.15;;;19.70;95.70;;;;;;5095976;28;20024;-77
2022/06/20 13:11:15;;;;;;;6.35;2.67;;;19.70;96.40;;;;;;5095980;28;20024;-77
2022/06/20 13:13:59;;;;;;;9.60;2.40;;;19.20;95.80;;;;;;5095974;28;20468;-77
2022/06/20 13:16:37;;;;;;;12.05;2.88;;;19.10;96.20;;;;;;5094911;28;20059;-77
2022/06/20 13:19:25;;;;;;;7.50;2.78;;;19.20;97.10;;;;;;5095815;28;20032;-77
2022/06/20 13:22:08;;;;;;;7.50;2.70;;;19.40;95.80;;;;;;5095156;28;20073;-77
2022/06/20 13:25:07;;;;;;;11.45;3.28;;;19.60;96.50;;;;;;5094697;28;20035;-78
2022/06/20 13:27:55;;;;;;;7.22;2.30;;;19.50;96.20;;;;;;5096008;28;20357;-76
2022/06/20 13:30:54;;;;;;;7.38;2.60;;;19.40;96.80;;;;;;5094913;28;20027;-76
2022/06/20 13:33:45;;;;;;;10.25;2.63;;;19.60;97.20;;;;;;5064036;28;20055;-77
2022/06/20 13:36:25;;;;;;;5.18;2.03;;;20.00;96.80;;;;;;5095025;28;20046;-77
2022/06/20 13:39:26;;;;;;;10.23;2.63;;;20.10;95.50;;;;;;5094928;28;20135;-77
2022/06/20 13:42:18;;;;;;;7.75;2.65;;;20.40;95.50;;;;;;5089765;28;20298;-77
2022/06/20 13:44:51;;;;;;;5.30;2.33;;;20.60;94.90;;;;;;5084988;28;20043;-77
2022/06/20 13:47:31;;;;;;;6.00;2.22;;;20.80;94.20;;;;;;5094493;28;20472;-77
2022/06/20 13:50:10;;;;;;;7.20;2.63;;;20.90;94.00;;;;;;5094600;28;20150;-76
2022/06/20 13:52:51;;;;;;;6.68;2.72;;;20.70;94.40;;;;;;5093728;28;20020;-77
2022/06/20 13:55:35;;;;;;;8.23;2.30;;;20.50;94.90;;;;;;5093504;28;20131;-77
2022/06/20 13:58:18;;;;;;;3.58;1.73;;;20.20;94.10;;;;;;5093425;28;20024;-76